createdAt,value
2016-10-15T00:00:50.105Z,11.23
2016-10-15T00:01:50.127Z,11.27
2016-10-15T00:02:50.139Z,11.32
2016-10-15T00:03:50.174Z,11.33
2016-10-15T00:04:50.174Z,11.23
2016-10-15T00:05:50.208Z,11.25
2016-10-15T00:06:50.215Z,11.26
2016-10-15T00:07:50.233Z,11.25
2016-10-15T00:08:50.257Z,11.19
2016-10-15T00:09:50.262Z,11.33
2016-10-15T00:10:50.289Z,11.26
2016-10-15T00:11:50.301Z,11.33
2016-10-15T00:12:50.336Z,11.26
2016-10-15T00:13:50.347Z,11.32
2016-10-15T00:14:50.354Z,11.32
2016-10-15T00:15:50.379Z,11.25
2016-10-15T00:16:50.390Z,11.26
2016-10-15T00:17:50.413Z,11.22
2016-10-15T00:18:50.427Z,11.25
2016-10-15T00:19:50.442Z,11.23
2016-10-15T00:20:50.459Z,11.3
2016-10-15T00:21:50.471Z,11.25
2016-10-15T00:22:50.487Z,11.23
2016-10-15T00:23:51.080Z,11.27
2016-10-15T00:24:50.521Z,11.3
2016-10-15T00:25:50.557Z,11.32
2016-10-15T00:26:50.566Z,11.22
2016-10-15T00:27:50.571Z,11.23
2016-10-15T00:28:50.586Z,11.27
2016-10-15T00:29:50.605Z,11.25
2016-10-15T00:30:50.631Z,11.23
2016-10-15T00:31:50.640Z,11.26
2016-10-15T00:32:50.662Z,11.27
2016-10-15T00:33:50.681Z,11.27
2016-10-15T00:34:50.700Z,11.25
2016-10-15T00:35:50.711Z,11.23
2016-10-15T00:36:50.726Z,11.25
2016-10-15T00:37:50.750Z,11.23
2016-10-15T00:38:50.761Z,11.19
2016-10-15T00:39:50.773Z,11.27
2016-10-15T00:40:50.790Z,11.25
2016-10-15T00:41:50.807Z,11.27
2016-10-15T00:42:50.843Z,11.19
2016-10-15T00:43:50.845Z,11.23
2016-10-15T00:44:50.858Z,11.23
2016-10-15T00:45:50.878Z,11.23
2016-10-15T00:46:50.905Z,11.23
2016-10-15T00:47:50.917Z,11.22
2016-10-15T00:48:50.929Z,11.23
2016-10-15T00:49:50.949Z,11.22
2016-10-15T00:50:50.985Z,11.17
2016-10-15T00:51:50.983Z,11.18
2016-10-15T00:52:51.000Z,11.19
2016-10-15T00:53:51.012Z,11.19
2016-10-15T00:54:51.039Z,11.22
2016-10-15T00:55:51.046Z,11.22
2016-10-15T00:56:51.059Z,11.22
2016-10-15T00:57:51.079Z,11.17
2016-10-15T00:58:51.110Z,11.18
2016-10-15T00:59:51.122Z,11.23
2016-10-15T01:00:51.130Z,11.14
2016-10-15T01:01:51.145Z,11.17
2016-10-15T01:02:51.162Z,11.17
2016-10-15T01:03:51.294Z,11.26
2016-10-15T01:04:51.308Z,11.14
2016-10-15T01:05:51.447Z,11.18
2016-10-15T01:06:51.315Z,11.15
2016-10-15T01:07:51.329Z,11.17
2016-10-15T01:08:51.347Z,11.12
2016-10-15T01:09:51.511Z,11.19
2016-10-15T01:10:51.491Z,11.22
2016-10-15T01:11:51.527Z,11.15
2016-10-15T01:12:51.541Z,11.12
2016-10-15T01:13:51.437Z,11.15
2016-10-15T01:14:51.450Z,11.17
2016-10-15T01:15:51.670Z,11.14
2016-10-15T01:16:51.595Z,11.12
2016-10-15T01:17:51.601Z,11.18
2016-10-15T01:18:51.612Z,11.1
2016-10-15T01:19:51.621Z,11.14
2016-10-15T01:20:51.627Z,11.14
2016-10-15T01:21:51.629Z,11.14
2016-10-15T01:22:51.641Z,11.12
2016-10-15T01:23:51.652Z,11.14
2016-10-15T01:24:51.661Z,11.15
2016-10-15T01:25:51.761Z,11.1
2016-10-15T01:26:51.641Z,11.18
2016-10-15T01:27:51.646Z,11.17
2016-10-15T01:28:51.651Z,11.11
2016-10-15T01:29:51.659Z,11.19
2016-10-15T01:30:51.773Z,11.23
2016-10-15T01:31:51.675Z,11.14
2016-10-15T01:32:51.685Z,11.11
2016-10-15T01:33:51.758Z,11.11
2016-10-15T01:34:51.712Z,11.22
2016-10-15T01:35:51.769Z,11.19
2016-10-15T01:36:51.736Z,11.15
2016-10-15T01:37:51.758Z,11.19
2016-10-15T01:38:51.771Z,11.22
2016-10-15T01:39:51.783Z,11.19
2016-10-15T01:40:51.807Z,11.19
2016-10-15T01:41:51.815Z,11.14
2016-10-15T01:42:51.857Z,11.12
2016-10-15T01:43:51.861Z,11.14
2016-10-15T01:44:51.865Z,11.15
2016-10-15T01:45:51.886Z,11.17
2016-10-15T01:46:51.908Z,11.12
2016-10-15T01:47:51.934Z,11.19
2016-10-15T01:48:51.939Z,11.12
2016-10-15T01:49:51.963Z,11.12
2016-10-15T01:50:51.971Z,11.11
2016-10-15T01:51:51.989Z,11.17
2016-10-15T01:52:52.006Z,11.18
2016-10-15T01:53:52.023Z,11.15
2016-10-15T01:54:52.040Z,11.08
2016-10-15T01:55:52.059Z,11.14
2016-10-15T01:56:52.072Z,11.1
2016-10-15T01:57:52.089Z,11.17
2016-10-15T01:58:52.107Z,11.08
2016-10-15T01:59:52.131Z,11.14
2016-10-15T02:00:52.143Z,11.14
2016-10-15T02:01:52.163Z,11.08
2016-10-15T02:02:52.177Z,11.12
2016-10-15T02:03:52.199Z,11.1
2016-10-15T02:04:52.217Z,11.15
2016-10-15T02:05:52.226Z,11.04
2016-10-15T02:06:52.257Z,11.14
2016-10-15T02:07:52.293Z,11.11
2016-10-15T02:08:52.281Z,11.11
2016-10-15T02:09:52.292Z,11.12
2016-10-15T02:10:52.307Z,11.15
2016-10-15T02:11:52.324Z,11.1
2016-10-15T02:12:52.349Z,11.1
2016-10-15T02:13:52.395Z,11.05
2016-10-15T02:14:52.387Z,11.11
2016-10-15T02:15:52.399Z,11.04
2016-10-15T02:16:52.410Z,11.07
2016-10-15T02:17:52.425Z,11.05
2016-10-15T02:18:52.442Z,11.08
2016-10-15T02:19:52.463Z,10.99
2016-10-15T02:20:52.480Z,11.05
2016-10-15T02:21:52.511Z,11.05
2016-10-15T02:22:52.513Z,11.05
2016-10-15T02:23:52.530Z,11.07
2016-10-15T02:24:52.553Z,11
2016-10-15T02:25:52.563Z,11.07
2016-10-15T02:26:52.588Z,11.07
2016-10-15T02:27:52.594Z,10.97
2016-10-15T02:28:52.610Z,11.05
2016-10-15T02:29:52.645Z,10.97
2016-10-15T02:30:52.652Z,11.05
2016-10-15T02:31:52.668Z,10.94
2016-10-15T02:32:52.677Z,10.97
2016-10-15T02:33:52.699Z,10.99
2016-10-15T02:34:52.722Z,11.07
2016-10-15T02:35:52.740Z,10.96
2016-10-15T02:36:52.743Z,11.07
2016-10-15T02:37:52.767Z,10.97
2016-10-15T02:38:52.798Z,10.96
2016-10-15T02:39:52.828Z,11
2016-10-15T02:40:52.828Z,11.02
2016-10-15T02:41:52.828Z,11
2016-10-15T02:42:52.855Z,11.11
2016-10-15T02:43:52.872Z,10.99
2016-10-15T02:44:52.890Z,10.96
2016-10-15T02:45:52.899Z,11.08
2016-10-15T02:46:52.924Z,10.99
2016-10-15T02:47:52.940Z,11.02
2016-10-15T02:48:52.949Z,10.99
2016-10-15T02:49:52.966Z,11
2016-10-15T02:50:52.982Z,11.04
2016-10-15T02:51:53.007Z,11.05
2016-10-15T02:52:53.014Z,11.02
2016-10-15T02:53:53.036Z,10.93
2016-10-15T02:54:53.113Z,11.04
2016-10-15T02:55:53.097Z,11
2016-10-15T02:56:53.191Z,11
2016-10-15T02:57:53.239Z,10.94
2016-10-15T02:58:53.124Z,10.99
2016-10-15T02:59:53.249Z,10.94
2016-10-15T03:00:53.364Z,11.02
2016-10-15T03:01:53.295Z,11
2016-10-15T03:02:53.189Z,11.05
2016-10-15T03:03:53.342Z,10.94
2016-10-15T03:04:53.376Z,10.99
2016-10-15T03:05:53.236Z,10.94
2016-10-15T03:06:53.260Z,11.05
2016-10-15T03:07:53.280Z,11
2016-10-15T03:08:53.289Z,11.04
2016-10-15T03:09:53.303Z,10.97
2016-10-15T03:10:53.320Z,10.99
2016-10-15T03:11:53.336Z,11
2016-10-15T03:12:53.385Z,10.97
2016-10-15T03:13:53.379Z,11.05
2016-10-15T03:14:53.431Z,10.96
2016-10-15T03:15:53.403Z,10.97
2016-10-15T03:16:53.429Z,11
2016-10-15T03:17:53.439Z,11.02
2016-10-15T03:18:53.458Z,11.07
2016-10-15T03:19:53.470Z,10.99
2016-10-15T03:20:53.495Z,11.04
2016-10-15T03:21:53.516Z,11.05
2016-10-15T03:22:53.524Z,10.97
2016-10-15T03:23:53.537Z,11.07
2016-10-15T03:24:53.555Z,10.97
2016-10-15T03:25:53.580Z,10.99
2016-10-15T03:26:53.595Z,10.97
2016-10-15T03:27:53.615Z,11.05
2016-10-15T03:28:53.632Z,11.07
2016-10-15T03:29:53.639Z,11.11
2016-10-15T03:30:53.660Z,11.04
2016-10-15T03:31:53.678Z,11.05
2016-10-15T03:32:53.692Z,11.05
2016-10-15T03:33:53.714Z,11.02
2016-10-15T03:34:53.727Z,11.05
2016-10-15T03:35:53.744Z,11.11
2016-10-15T03:36:53.766Z,11.05
2016-10-15T03:37:53.780Z,11.07
2016-10-15T03:38:53.791Z,11.07
2016-10-15T03:39:53.821Z,11.05
2016-10-15T03:40:53.830Z,11.07
2016-10-15T03:41:53.842Z,11.11
2016-10-15T03:42:53.869Z,11.12
2016-10-15T03:43:53.884Z,11.07
2016-10-15T03:44:53.896Z,11.08
2016-10-15T03:45:53.910Z,11.11
2016-10-15T03:46:53.945Z,11.05
2016-10-15T03:47:53.941Z,11.08
2016-10-15T03:48:53.962Z,11.05
2016-10-15T03:49:53.976Z,11.12
2016-10-15T03:50:53.995Z,11.12
2016-10-15T03:51:54.010Z,11.04
2016-10-15T03:52:54.033Z,11.14
2016-10-15T03:53:54.045Z,11.08
2016-10-15T03:54:54.062Z,11.08
2016-10-15T03:55:54.128Z,11.12
2016-10-15T03:56:54.094Z,11.08
2016-10-15T03:57:54.118Z,11.15
2016-10-15T03:58:54.130Z,11.1
2016-10-15T03:59:54.148Z,11.07
2016-10-15T04:00:54.164Z,11.15
2016-10-15T04:01:54.178Z,11.07
2016-10-15T04:02:54.194Z,11.12
2016-10-15T04:03:54.212Z,11.08
2016-10-15T04:04:54.229Z,11.1
2016-10-15T04:05:54.251Z,11.14
2016-10-15T04:06:54.265Z,11.12
2016-10-15T04:07:54.281Z,11.15
2016-10-15T04:08:54.297Z,11.1
2016-10-15T04:09:54.316Z,11.08
2016-10-15T04:10:54.332Z,11.12
2016-10-15T04:11:54.343Z,11.19
2016-10-15T04:12:54.365Z,11.18
2016-10-15T04:13:54.384Z,11.15
2016-10-15T04:14:54.649Z,11.12
2016-10-15T04:15:54.417Z,11.17
2016-10-15T04:16:54.433Z,11.22
2016-10-15T04:17:54.451Z,11.11
2016-10-15T04:18:54.466Z,11.14
2016-10-15T04:19:54.486Z,11.22
2016-10-15T04:20:54.503Z,11.14
2016-10-15T04:21:54.517Z,11.15
2016-10-15T04:22:54.533Z,11.18
2016-10-15T04:23:54.549Z,11.15
2016-10-15T04:24:54.567Z,11.12
2016-10-15T04:25:54.584Z,11.15
2016-10-15T04:26:54.601Z,11.18
2016-10-15T04:27:54.628Z,11.12
2016-10-15T04:28:54.640Z,11.17
2016-10-15T04:29:54.649Z,11.17
2016-10-15T04:30:54.675Z,11.22
2016-10-15T04:31:54.683Z,11.18
2016-10-15T04:32:54.702Z,11.17
2016-10-15T04:33:54.717Z,11.18
2016-10-15T04:34:54.736Z,11.18
2016-10-15T04:35:54.753Z,11.17
2016-10-15T04:36:54.769Z,11.17
2016-10-15T04:37:54.789Z,11.19
2016-10-15T04:38:54.803Z,11.22
2016-10-15T04:39:54.824Z,11.19
2016-10-15T04:40:54.840Z,11.23
2016-10-15T04:41:54.854Z,11.22
2016-10-15T04:42:54.868Z,11.18
2016-10-15T04:43:54.887Z,11.25
2016-10-15T04:44:54.901Z,11.23
2016-10-15T04:45:54.924Z,11.22
2016-10-15T04:46:54.940Z,11.18
2016-10-15T04:47:54.961Z,11.25
2016-10-15T04:48:54.972Z,11.25
2016-10-15T04:49:54.990Z,11.23
2016-10-15T04:50:55.014Z,11.22
2016-10-15T04:51:55.025Z,11.22
2016-10-15T04:52:55.039Z,11.27
2016-10-15T04:53:55.069Z,11.23
2016-10-15T04:54:55.079Z,11.23
2016-10-15T04:55:55.090Z,11.23
2016-10-15T04:56:55.111Z,11.27
2016-10-15T04:57:55.130Z,11.27
2016-10-15T04:58:55.143Z,11.26
2016-10-15T04:59:55.157Z,11.22
2016-10-15T05:00:55.507Z,11.22
2016-10-15T05:01:55.197Z,11.23
2016-10-15T05:02:55.210Z,11.27
2016-10-15T05:03:55.226Z,11.27
2016-10-15T05:04:55.245Z,11.23
2016-10-15T05:05:55.260Z,11.25
2016-10-15T05:06:55.274Z,11.27
2016-10-15T05:07:55.300Z,11.25
2016-10-15T05:08:55.312Z,11.29
2016-10-15T05:09:55.347Z,11.27
2016-10-15T05:10:55.346Z,11.26
2016-10-15T05:11:55.363Z,11.26
2016-10-15T05:12:55.382Z,11.23
2016-10-15T05:13:55.405Z,11.27
2016-10-15T05:14:55.412Z,11.3
2016-10-15T05:15:55.427Z,11.29
2016-10-15T05:16:55.444Z,11.32
2016-10-15T05:17:55.463Z,11.35
2016-10-15T05:18:55.484Z,11.33
2016-10-15T05:19:55.503Z,11.27
2016-10-15T05:20:55.515Z,11.27
2016-10-15T05:21:55.530Z,11.27
2016-10-15T05:22:55.549Z,11.25
2016-10-15T05:23:55.567Z,11.3
2016-10-15T05:24:55.579Z,11.29
2016-10-15T05:25:55.916Z,11.3
2016-10-15T05:26:55.615Z,11.3
2016-10-15T05:27:55.631Z,11.25
2016-10-15T05:28:55.646Z,11.32
2016-10-15T05:29:55.667Z,11.23
2016-10-15T05:30:55.683Z,11.19
2016-10-15T05:31:55.695Z,11.3
2016-10-15T05:32:55.715Z,11.27
2016-10-15T05:33:55.736Z,11.19
2016-10-15T05:34:55.911Z,11.19
2016-10-15T05:35:55.770Z,11.27
2016-10-15T05:36:55.791Z,11.3
2016-10-15T05:37:55.799Z,11.29
2016-10-15T05:38:55.824Z,11.3
2016-10-15T05:39:55.950Z,11.3
2016-10-15T05:40:55.955Z,11.27
2016-10-15T05:41:55.952Z,11.26
2016-10-15T05:42:55.971Z,11.32
2016-10-15T05:43:55.981Z,11.27
2016-10-15T05:44:56.146Z,11.27
2016-10-15T05:45:56.121Z,11.29
2016-10-15T05:46:56.154Z,11.26
2016-10-15T05:47:56.167Z,11.32
2016-10-15T05:48:56.177Z,11.23
2016-10-15T05:49:56.183Z,11.32
2016-10-15T05:50:56.321Z,11.26
2016-10-15T05:51:56.192Z,11.37
2016-10-15T05:52:56.237Z,11.35
2016-10-15T05:53:56.243Z,11.32
2016-10-15T05:54:56.250Z,11.4
2016-10-15T05:55:56.300Z,11.37
2016-10-15T05:56:56.264Z,11.33
2016-10-15T05:57:56.599Z,11.35
2016-10-15T05:58:56.282Z,11.35
2016-10-15T05:59:56.279Z,11.37
2016-10-15T06:00:56.394Z,11.35
2016-10-15T06:01:56.289Z,11.36
2016-10-15T06:02:56.310Z,11.37
2016-10-15T06:03:56.317Z,11.35
2016-10-15T06:04:56.323Z,11.37
2016-10-15T06:05:56.373Z,11.43
2016-10-15T06:06:56.301Z,11.36
2016-10-15T06:07:56.317Z,11.33
2016-10-15T06:08:56.323Z,11.41
2016-10-15T06:09:56.353Z,11.37
2016-10-15T06:10:56.410Z,11.35
2016-10-15T06:11:56.374Z,11.4
2016-10-15T06:12:56.392Z,11.37
2016-10-15T06:13:56.408Z,11.45
2016-10-15T06:14:56.432Z,11.43
2016-10-15T06:15:56.440Z,11.43
2016-10-15T06:16:56.457Z,11.45
2016-10-15T06:17:56.474Z,11.37
2016-10-15T06:18:56.493Z,11.37
2016-10-15T06:19:56.512Z,11.43
2016-10-15T06:20:56.526Z,11.44
2016-10-15T06:21:56.543Z,11.5
2016-10-15T06:22:56.561Z,11.43
2016-10-15T06:23:56.576Z,11.4
2016-10-15T06:24:56.594Z,11.43
2016-10-15T06:25:56.612Z,11.51
2016-10-15T06:26:56.624Z,11.44
2016-10-15T06:27:56.644Z,11.5
2016-10-15T06:28:56.660Z,11.5
2016-10-15T06:29:56.688Z,11.5
2016-10-15T06:30:56.703Z,11.45
2016-10-15T06:31:56.713Z,11.5
2016-10-15T06:32:56.729Z,11.5
2016-10-15T06:33:56.745Z,11.47
2016-10-15T06:34:56.763Z,11.51
2016-10-15T06:35:56.777Z,11.59
2016-10-15T06:36:56.798Z,11.55
2016-10-15T06:37:56.826Z,11.59
2016-10-15T06:38:56.829Z,11.55
2016-10-15T06:39:56.850Z,11.54
2016-10-15T06:40:56.865Z,11.59
2016-10-15T06:41:56.882Z,11.62
2016-10-15T06:42:56.994Z,11.62
2016-10-15T06:43:56.919Z,11.65
2016-10-15T06:44:56.937Z,11.68
2016-10-15T06:45:56.949Z,11.63
2016-10-15T06:46:56.967Z,11.62
2016-10-15T06:47:56.985Z,11.65
2016-10-15T06:48:57.002Z,11.66
2016-10-15T06:49:57.019Z,11.62
2016-10-15T06:50:57.044Z,11.7
2016-10-15T06:51:57.054Z,11.69
2016-10-15T06:52:57.068Z,11.73
2016-10-15T06:53:57.089Z,11.7
2016-10-15T06:54:57.101Z,11.66
2016-10-15T06:55:57.122Z,11.69
2016-10-15T06:56:57.141Z,11.73
2016-10-15T06:57:57.156Z,11.65
2016-10-15T06:58:57.175Z,11.68
2016-10-15T06:59:57.189Z,11.77
2016-10-15T07:00:57.205Z,11.8
2016-10-15T07:01:57.225Z,11.68
2016-10-15T07:02:57.242Z,11.72
2016-10-15T07:03:57.256Z,11.78
2016-10-15T07:04:57.279Z,11.77
2016-10-15T07:05:57.295Z,11.78
2016-10-15T07:06:57.316Z,11.69
2016-10-15T07:07:57.326Z,11.8
2016-10-15T07:08:57.345Z,11.72
2016-10-15T07:09:57.362Z,11.77
2016-10-15T07:10:57.377Z,11.83
2016-10-15T07:11:57.395Z,11.83
2016-10-15T07:12:57.420Z,11.73
2016-10-15T07:13:57.431Z,11.86
2016-10-15T07:14:57.447Z,11.78
2016-10-15T07:15:57.465Z,11.72
2016-10-15T07:16:57.481Z,11.73
2016-10-15T07:17:57.495Z,11.73
2016-10-15T07:18:57.516Z,11.87
2016-10-15T07:19:57.534Z,11.83
2016-10-15T07:20:57.553Z,11.86
2016-10-15T07:21:57.572Z,11.88
2016-10-15T07:22:57.583Z,11.83
2016-10-15T07:23:57.603Z,11.9
2016-10-15T07:24:57.616Z,11.88
2016-10-15T07:25:57.635Z,11.88
2016-10-15T07:26:57.654Z,11.88
2016-10-15T07:27:57.669Z,11.81
2016-10-15T07:28:57.688Z,11.88
2016-10-15T07:29:57.705Z,11.95
2016-10-15T07:30:57.721Z,11.87
2016-10-15T07:31:57.737Z,11.88
2016-10-15T07:32:57.756Z,11.88
2016-10-15T07:33:57.772Z,11.95
2016-10-15T07:34:57.832Z,11.95
2016-10-15T07:35:57.807Z,11.95
2016-10-15T07:36:57.826Z,11.99
2016-10-15T07:37:57.841Z,12.04
2016-10-15T07:38:57.860Z,11.95
2016-10-15T07:39:57.878Z,11.99
2016-10-15T07:40:57.894Z,12.04
2016-10-15T07:41:57.912Z,12.04
2016-10-15T07:42:57.930Z,12.06
2016-10-15T07:43:58.124Z,12.12
2016-10-15T07:44:58.136Z,12.13
2016-10-15T07:45:58.216Z,12.09
2016-10-15T07:46:58.149Z,12.07
2016-10-15T07:47:58.172Z,12.03
2016-10-15T07:48:58.158Z,12.03
2016-10-15T07:49:58.536Z,12.2
2016-10-15T07:50:58.306Z,12.07
2016-10-15T07:51:58.188Z,12.09
2016-10-15T07:52:58.217Z,12.12
2016-10-15T07:53:58.169Z,12.15
2016-10-15T07:54:58.174Z,12.18
2016-10-15T07:55:58.257Z,12.18
2016-10-15T07:56:58.174Z,12.15
2016-10-15T07:57:58.191Z,12.2
2016-10-15T07:58:58.207Z,12.27
2016-10-15T07:59:58.228Z,12.21
2016-10-15T08:00:58.284Z,12.25
2016-10-15T08:01:58.263Z,12.28
2016-10-15T08:02:58.313Z,12.24
2016-10-15T08:03:58.294Z,12.29
2016-10-15T08:04:58.309Z,12.27
2016-10-15T08:05:58.332Z,12.28
2016-10-15T08:06:58.345Z,12.27
2016-10-15T08:07:58.366Z,12.37
2016-10-15T08:08:58.386Z,12.37
2016-10-15T08:09:58.396Z,12.37
2016-10-15T08:10:58.826Z,12.42
2016-10-15T08:11:58.436Z,12.36
2016-10-15T08:12:58.456Z,12.39
2016-10-15T08:13:58.477Z,12.39
2016-10-15T08:14:58.488Z,12.31
2016-10-15T08:15:58.503Z,12.42
2016-10-15T08:16:58.846Z,12.43
2016-10-15T08:17:58.538Z,12.47
2016-10-15T08:18:58.558Z,12.43
2016-10-15T08:19:58.574Z,12.42
2016-10-15T08:20:58.598Z,12.46
2016-10-15T08:21:58.616Z,12.43
2016-10-15T08:22:58.632Z,12.45
2016-10-15T08:23:58.752Z,12.46
2016-10-15T08:24:58.778Z,12.54
2016-10-15T08:25:58.971Z,12.46
2016-10-15T08:26:58.784Z,12.54
2016-10-15T08:27:58.794Z,12.45
2016-10-15T08:28:58.940Z,12.54
2016-10-15T08:29:58.949Z,12.57
2016-10-15T08:30:58.957Z,12.65
2016-10-15T08:31:58.967Z,12.54
2016-10-15T08:32:58.887Z,12.65
2016-10-15T08:33:58.978Z,12.65
2016-10-15T08:34:58.931Z,12.68
2016-10-15T08:35:58.939Z,12.65
2016-10-15T08:36:58.935Z,12.65
2016-10-15T08:37:58.975Z,12.65
2016-10-15T08:38:58.991Z,12.73
2016-10-15T08:39:58.992Z,12.65
2016-10-15T08:40:59.003Z,12.65
2016-10-15T08:41:59.001Z,12.76
2016-10-15T08:42:59.007Z,12.83
2016-10-15T08:43:59.017Z,12.75
2016-10-15T08:44:59.027Z,12.73
2016-10-15T08:45:59.042Z,12.8
2016-10-15T08:46:59.055Z,12.83
2016-10-15T08:47:59.064Z,12.82
2016-10-15T08:48:59.087Z,12.87
2016-10-15T08:49:59.108Z,12.82
2016-10-15T08:50:59.121Z,12.9
2016-10-15T08:51:59.141Z,12.93
2016-10-15T08:52:59.153Z,12.94
2016-10-15T08:53:59.169Z,12.94
2016-10-15T08:54:59.191Z,12.93
2016-10-15T08:55:59.209Z,12.97
2016-10-15T08:56:59.291Z,12.95
2016-10-15T08:57:59.247Z,12.94
2016-10-15T08:58:59.263Z,12.95
2016-10-15T08:59:59.278Z,13.03
2016-10-15T09:00:59.295Z,13.01
2016-10-15T09:01:59.319Z,12.98
2016-10-15T09:02:59.338Z,13.12
2016-10-15T09:03:59.350Z,13.11
2016-10-15T09:04:59.367Z,13.08
2016-10-15T09:05:59.393Z,13.13
2016-10-15T09:06:59.408Z,13.19
2016-10-15T09:07:59.428Z,13.08
2016-10-15T09:08:59.442Z,13.22
2016-10-15T09:09:59.456Z,13.13
2016-10-15T09:10:59.483Z,13.15
2016-10-15T09:11:59.494Z,13.19
2016-10-15T09:12:59.519Z,13.12
2016-10-15T09:13:59.529Z,13.2
2016-10-15T09:14:59.555Z,13.2
2016-10-15T09:15:59.566Z,13.23
2016-10-15T09:16:59.597Z,13.2
2016-10-15T09:17:59.605Z,13.2
2016-10-15T09:18:59.625Z,13.27
2016-10-15T09:19:59.640Z,13.28
2016-10-15T09:20:59.657Z,13.28
2016-10-15T09:21:59.778Z,13.37
2016-10-15T09:22:59.828Z,13.33
2016-10-15T09:23:59.823Z,13.44
2016-10-15T09:24:59.844Z,13.37
2016-10-15T09:25:59.844Z,13.5
2016-10-15T09:26:59.854Z,13.5
2016-10-15T09:27:59.862Z,13.56
2016-10-15T09:28:59.872Z,13.52
2016-10-15T09:29:59.982Z,13.6
2016-10-15T09:30:59.922Z,13.65
2016-10-15T09:31:59.933Z,13.6
2016-10-15T09:32:59.975Z,13.68
2016-10-15T09:33:59.986Z,13.65
2016-10-15T09:34:59.986Z,13.7
2016-10-15T09:35:59.938Z,13.75
2016-10-15T09:36:59.947Z,13.75
2016-10-15T09:37:59.986Z,13.81
2016-10-15T09:39:00.070Z,13.81
2016-10-15T09:40:00.002Z,13.81
2016-10-15T09:41:00.023Z,13.89
2016-10-15T09:42:00.045Z,13.95
2016-10-15T09:43:00.062Z,13.9
2016-10-15T09:44:00.076Z,13.93
2016-10-15T09:45:00.096Z,13.96
2016-10-15T09:46:00.120Z,13.97
2016-10-15T09:47:00.137Z,13.95
2016-10-15T09:48:00.163Z,14
2016-10-15T09:49:00.167Z,14.08
2016-10-15T09:50:00.203Z,14.07
2016-10-15T09:51:00.210Z,14.1
2016-10-15T09:52:00.239Z,14.11
2016-10-15T09:53:00.248Z,14.18
2016-10-15T09:54:00.264Z,14.26
2016-10-15T09:55:00.296Z,14.15
2016-10-15T09:56:00.302Z,14.2
2016-10-15T09:57:00.323Z,14.18
2016-10-15T09:58:00.341Z,14.25
2016-10-15T09:59:00.370Z,14.28
2016-10-15T10:00:00.388Z,14.28
2016-10-15T10:01:00.401Z,14.26
2016-10-15T10:02:00.412Z,14.35
2016-10-15T10:03:00.431Z,14.3
2016-10-15T10:04:00.457Z,14.32
2016-10-15T10:05:00.464Z,14.35
2016-10-15T10:06:00.493Z,14.44
2016-10-15T10:07:00.514Z,14.4
2016-10-15T10:08:00.538Z,14.51
2016-10-15T10:09:00.546Z,14.53
2016-10-15T10:10:00.562Z,14.53
2016-10-15T10:11:00.586Z,14.62
2016-10-15T10:12:00.623Z,14.51
2016-10-15T10:13:00.618Z,14.63
2016-10-15T10:14:00.652Z,14.68
2016-10-15T10:15:00.660Z,14.65
2016-10-15T10:16:00.686Z,14.69
2016-10-15T10:17:00.693Z,14.69
2016-10-15T10:18:00.719Z,14.73
2016-10-15T10:19:00.732Z,14.78
2016-10-15T10:20:00.756Z,14.81
2016-10-15T10:21:00.767Z,14.79
2016-10-15T10:22:00.803Z,14.85
2016-10-15T10:23:00.811Z,14.82
2016-10-15T10:24:00.836Z,14.84
2016-10-15T10:25:00.845Z,14.91
2016-10-15T10:26:00.871Z,14.96
2016-10-15T10:27:00.888Z,14.91
2016-10-15T10:28:00.930Z,15.03
2016-10-15T10:29:00.921Z,15
2016-10-15T10:30:00.953Z,15.02
2016-10-15T10:31:00.962Z,14.99
2016-10-15T10:32:00.984Z,15.07
2016-10-15T10:33:00.998Z,15.06
2016-10-15T10:34:01.018Z,15.1
2016-10-15T10:35:01.039Z,15.07
2016-10-15T10:36:01.060Z,15.15
2016-10-15T10:37:01.071Z,15.09
2016-10-15T10:38:01.094Z,15.21
2016-10-15T10:39:01.108Z,15.17
2016-10-15T10:40:01.132Z,15.22
2016-10-15T10:41:01.153Z,15.25
2016-10-15T10:42:01.177Z,15.21
2016-10-15T10:43:01.188Z,15.18
2016-10-15T10:44:01.221Z,15.24
2016-10-15T10:45:01.229Z,15.28
2016-10-15T10:46:01.253Z,15.17
2016-10-15T10:47:01.269Z,15.27
2016-10-15T10:48:01.294Z,15.29
2016-10-15T10:49:01.308Z,15.19
2016-10-15T10:50:01.337Z,15.25
2016-10-15T10:51:01.345Z,15.33
2016-10-15T10:52:01.367Z,15.33
2016-10-15T10:53:01.388Z,15.37
2016-10-15T10:54:01.403Z,15.35
2016-10-15T10:55:01.422Z,15.36
2016-10-15T10:56:01.442Z,15.39
2016-10-15T10:57:01.460Z,15.35
2016-10-15T10:58:01.489Z,15.43
2016-10-15T10:59:01.500Z,15.43
2016-10-15T11:00:01.523Z,15.43
2016-10-15T11:01:01.540Z,15.46
2016-10-15T11:02:01.555Z,15.39
2016-10-15T11:03:01.577Z,15.47
2016-10-15T11:04:01.599Z,15.47
2016-10-15T11:05:01.643Z,15.57
2016-10-15T11:06:01.638Z,15.58
2016-10-15T11:07:01.655Z,15.49
2016-10-15T11:08:01.677Z,15.64
2016-10-15T11:09:01.698Z,15.59
2016-10-15T11:10:01.713Z,15.62
2016-10-15T11:11:01.732Z,15.67
2016-10-15T11:12:01.756Z,15.61
2016-10-15T11:13:01.777Z,15.65
2016-10-15T11:14:01.795Z,15.65
2016-10-15T11:15:01.812Z,15.64
2016-10-15T11:16:01.829Z,15.61
2016-10-15T11:17:01.853Z,15.75
2016-10-15T11:18:01.874Z,15.75
2016-10-15T11:19:01.900Z,15.77
2016-10-15T11:20:01.914Z,15.82
2016-10-15T11:21:01.939Z,15.82
2016-10-15T11:22:01.953Z,15.86
2016-10-15T11:23:01.977Z,15.79
2016-10-15T11:24:01.993Z,15.77
2016-10-15T11:25:02.385Z,15.9
2016-10-15T11:26:02.032Z,15.94
2016-10-15T11:27:02.056Z,15.94
2016-10-15T11:28:02.075Z,15.92
2016-10-15T11:29:02.099Z,16.01
2016-10-15T11:30:02.109Z,15.97
2016-10-15T11:31:02.134Z,15.97
2016-10-15T11:32:02.153Z,15.98
2016-10-15T11:33:02.296Z,16.02
2016-10-15T11:34:02.306Z,16.09
2016-10-15T11:35:02.315Z,16.13
2016-10-15T11:36:02.324Z,16.1
2016-10-15T11:37:02.333Z,16.2
2016-10-15T11:38:02.370Z,16.16
2016-10-15T11:39:02.399Z,16.26
2016-10-15T11:40:02.420Z,16.36
2016-10-15T11:41:02.429Z,16.39
2016-10-15T11:42:02.456Z,16.38
2016-10-15T11:43:02.465Z,16.39
2016-10-15T11:44:02.474Z,16.43
2016-10-15T11:45:02.482Z,16.43
2016-10-15T11:46:02.490Z,16.42
2016-10-15T11:47:02.489Z,16.43
2016-10-15T11:48:02.499Z,16.58
2016-10-15T11:49:02.507Z,16.6
2016-10-15T11:50:02.519Z,16.64
2016-10-15T11:51:02.635Z,16.65
2016-10-15T11:52:02.564Z,16.6
2016-10-15T11:53:02.573Z,16.75
2016-10-15T11:54:02.681Z,16.78
2016-10-15T11:55:02.622Z,16.75
2016-10-15T11:56:02.642Z,16.79
2016-10-15T11:57:02.657Z,16.81
2016-10-15T11:58:02.700Z,16.84
2016-10-15T11:59:02.696Z,16.94
2016-10-15T12:00:02.712Z,16.91
2016-10-15T12:01:03.049Z,16.89
2016-10-15T12:02:02.768Z,16.94
2016-10-15T12:03:02.783Z,17.01
2016-10-15T12:04:02.813Z,17.02
2016-10-15T12:05:02.825Z,17.01
2016-10-15T12:06:02.843Z,17.06
2016-10-15T12:07:02.859Z,17.09
2016-10-15T12:08:02.889Z,16.96
2016-10-15T12:09:02.902Z,17.01
2016-10-15T12:10:02.941Z,17.14
2016-10-15T12:11:02.941Z,17.12
2016-10-15T12:12:02.966Z,17.08
2016-10-15T12:13:02.984Z,17.16
2016-10-15T12:14:03.001Z,17.15
2016-10-15T12:15:03.021Z,17.19
2016-10-15T12:16:03.059Z,17.26
2016-10-15T12:17:03.060Z,17.19
2016-10-15T12:18:03.100Z,17.24
2016-10-15T12:19:03.105Z,17.39
2016-10-15T12:20:03.123Z,17.34
2016-10-15T12:21:03.144Z,17.39
2016-10-15T12:22:03.166Z,17.33
2016-10-15T12:23:03.187Z,17.48
2016-10-15T12:24:03.212Z,17.42
2016-10-15T12:25:03.233Z,17.49
2016-10-15T12:26:03.255Z,17.54
2016-10-15T12:27:03.274Z,17.59
2016-10-15T12:28:03.293Z,17.59
2016-10-15T12:29:03.316Z,17.54
2016-10-15T12:30:03.345Z,17.63
2016-10-15T12:31:03.356Z,17.68
2016-10-15T12:32:03.379Z,17.65
2016-10-15T12:33:03.396Z,17.65
2016-10-15T12:34:03.425Z,17.71
2016-10-15T12:35:03.437Z,17.71
2016-10-15T12:36:03.453Z,17.85
2016-10-15T12:37:03.476Z,17.8
2016-10-15T12:38:03.504Z,17.82
2016-10-15T12:39:03.518Z,17.86
2016-10-15T12:40:03.540Z,17.87
2016-10-15T12:41:03.566Z,17.92
2016-10-15T12:42:03.582Z,18.01
2016-10-15T12:43:03.601Z,18
2016-10-15T12:44:03.624Z,18
2016-10-15T12:45:03.647Z,18.04
2016-10-15T12:46:03.677Z,18.08
2016-10-15T12:47:03.688Z,18.1
2016-10-15T12:48:03.711Z,18.03
2016-10-15T12:49:03.727Z,18.03
2016-10-15T12:50:03.749Z,18.11
2016-10-15T12:51:03.769Z,18.18
2016-10-15T12:52:03.782Z,18.2
2016-10-15T12:53:03.812Z,18.11
2016-10-15T12:54:03.831Z,18.15
2016-10-15T12:55:03.856Z,18.19
2016-10-15T12:56:03.924Z,18.22